sensor_id;sensor_type;location;lat;lon;timestamp;temperature;humidity
42819;DHT22;30249;51.426;0.102;2022-07-23T00:01:30;17.90;97.10
42819;DHT22;30249;51.426;0.102;2022-07-23T00:03:58;17.80;97.40
42819;DHT22;30249;51.426;0.102;2022-07-23T00:06:26;18.90;97.40
42819;DHT22;30249;51.426;0.102;2022-07-23T00:08:55;17.90;97.20
42819;DHT22;30249;51.426;0.102;2022-07-23T00:11:23;17.90;97.30
42819;DHT22;30249;51.426;0.102;2022-07-23T00:13:52;17.90;97.20
42819;DHT22;30249;51.426;0.102;2022-07-23T00:16:22;17.90;97.50
42819;DHT22;30249;51.426;0.102;2022-07-23T00:18:52;18.10;97.70
42819;DHT22;30249;51.426;0.102;2022-07-23T00:21:21;17.90;97.40
42819;DHT22;30249;51.426;0.102;2022-07-23T00:23:48;17.80;97.40
42819;DHT22;30249;51.426;0.102;2022-07-23T00:26:17;17.50;97.50
42819;DHT22;30249;51.426;0.102;2022-07-23T00:28:45;17.90;97.40
42819;DHT22;30249;51.426;0.102;2022-07-23T00:31:13;18.00;97.50
42819;DHT22;30249;51.426;0.102;2022-07-23T00:33:42;17.90;97.30
42819;DHT22;30249;51.426;0.102;2022-07-23T00:36:11;18.00;97.30
42819;DHT22;30249;51.426;0.102;2022-07-23T00:38:40;17.90;97.30
42819;DHT22;30249;51.426;0.102;2022-07-23T00:41:08;17.80;97.40
42819;DHT22;30249;51.426;0.102;2022-07-23T00:43:36;17.90;97.40
42819;DHT22;30249;51.426;0.102;2022-07-23T00:46:04;18.00;97.50
42819;DHT22;30249;51.426;0.102;2022-07-23T00:48:32;18.00;97.50
42819;DHT22;30249;51.426;0.102;2022-07-23T00:51:00;18.00;97.80
42819;DHT22;30249;51.426;0.102;2022-07-23T00:53:28;18.00;97.50
42819;DHT22;30249;51.426;0.102;2022-07-23T00:55:57;18.00;97.40
42819;DHT22;30249;51.426;0.102;2022-07-23T00:58:28;18.10;97.40
42819;DHT22;30249;51.426;0.102;2022-07-23T01:00:57;18.10;97.30
42819;DHT22;30249;51.426;0.102;2022-07-23T01:03:26;16.10;96.70
42819;DHT22;30249;51.426;0.102;2022-07-23T01:05:53;18.10;97.20
42819;DHT22;30249;51.426;0.102;2022-07-23T01:08:23;18.10;97.30
42819;DHT22;30249;51.426;0.102;2022-07-23T01:10:59;18.10;97.10
42819;DHT22;30249;51.426;0.102;2022-07-23T01:13:28;18.10;97.30
42819;DHT22;30249;51.426;0.102;2022-07-23T01:15:56;18.10;97.10
42819;DHT22;30249;51.426;0.102;2022-07-23T01:18:23;17.70;97.40
42819;DHT22;30249;51.426;0.102;2022-07-23T01:20:51;18.00;97.50
42819;DHT22;30249;51.426;0.102;2022-07-23T01:23:22;18.00;97.30
42819;DHT22;30249;51.426;0.102;2022-07-23T01:25:54;18.00;97.30
42819;DHT22;30249;51.426;0.102;2022-07-23T01:28:24;17.90;97.40
42819;DHT22;30249;51.426;0.102;2022-07-23T01:30:59;17.90;97.50
42819;DHT22;30249;51.426;0.102;2022-07-23T01:33:36;17.90;97.30
42819;DHT22;30249;51.426;0.102;2022-07-23T01:36:03;17.80;97.50
42819;DHT22;30249;51.426;0.102;2022-07-23T01:38:31;17.70;97.60
42819;DHT22;30249;51.426;0.102;2022-07-23T01:41:00;17.60;97.70
42819;DHT22;30249;51.426;0.102;2022-07-23T01:43:31;17.60;97.70
42819;DHT22;30249;51.426;0.102;2022-07-23T01:46:00;17.50;98.10
42819;DHT22;30249;51.426;0.102;2022-07-23T01:48:36;17.70;98.10
42819;DHT22;30249;51.426;0.102;2022-07-23T01:51:21;17.50;98.10
42819;DHT22;30249;51.426;0.102;2022-07-23T01:54:02;17.60;98.30
42819;DHT22;30249;51.426;0.102;2022-07-23T01:56:30;17.40;98.30
42819;DHT22;30249;51.426;0.102;2022-07-23T01:58:58;17.50;98.10
42819;DHT22;30249;51.426;0.102;2022-07-23T02:01:31;17.50;98.40
42819;DHT22;30249;51.426;0.102;2022-07-23T02:04:00;17.50;98.20
42819;DHT22;30249;51.426;0.102;2022-07-23T02:06:29;17.60;98.10
42819;DHT22;30249;51.426;0.102;2022-07-23T02:08:58;17.60;98.00
42819;DHT22;30249;51.426;0.102;2022-07-23T02:11:27;17.60;98.10
42819;DHT22;30249;51.426;0.102;2022-07-23T02:13:58;17.60;98.00
42819;DHT22;30249;51.426;0.102;2022-07-23T02:16:28;17.60;98.10
42819;DHT22;30249;51.426;0.102;2022-07-23T02:19:02;16.10;97.70
42819;DHT22;30249;51.426;0.102;2022-07-23T02:21:31;17.60;98.10
42819;DHT22;30249;51.426;0.102;2022-07-23T02:23:59;17.60;98.00
42819;DHT22;30249;51.426;0.102;2022-07-23T02:26:29;17.60;98.00
42819;DHT22;30249;51.426;0.102;2022-07-23T02:29:02;17.50;98.10
42819;DHT22;30249;51.426;0.102;2022-07-23T02:31:32;18.20;98.40
42819;DHT22;30249;51.426;0.102;2022-07-23T02:34:00;17.50;98.30
42819;DHT22;30249;51.426;0.102;2022-07-23T02:36:29;17.50;98.40
42819;DHT22;30249;51.426;0.102;2022-07-23T02:38:59;17.50;98.30
42819;DHT22;30249;51.426;0.102;2022-07-23T02:41:31;16.30;98.30
42819;DHT22;30249;51.426;0.102;2022-07-23T02:44:00;17.40;98.50
42819;DHT22;30249;51.426;0.102;2022-07-23T02:46:28;17.40;99.00
42819;DHT22;30249;51.426;0.102;2022-07-23T02:48:57;17.40;98.50
42819;DHT22;30249;51.426;0.102;2022-07-23T02:51:28;17.40;98.70
42819;DHT22;30249;51.426;0.102;2022-07-23T02:54:00;17.40;98.70
42819;DHT22;30249;51.426;0.102;2022-07-23T02:56:28;17.30;98.90
42819;DHT22;30249;51.426;0.102;2022-07-23T02:58:58;17.30;98.80
42819;DHT22;30249;51.426;0.102;2022-07-23T03:01:27;17.20;98.80
42819;DHT22;30249;51.426;0.102;2022-07-23T03:03:55;18.10;99.10
42819;DHT22;30249;51.426;0.102;2022-07-23T03:06:24;15.40;98.60
42819;DHT22;30249;51.426;0.102;2022-07-23T03:08:52;17.20;98.80
42819;DHT22;30249;51.426;0.102;2022-07-23T03:11:21;17.20;98.90
42819;DHT22;30249;51.426;0.102;2022-07-23T03:13:49;17.20;98.90
42819;DHT22;30249;51.426;0.102;2022-07-23T03:16:17;16.50;98.60
42819;DHT22;30249;51.426;0.102;2022-07-23T03:18:46;17.20;99.20
42819;DHT22;30249;51.426;0.102;2022-07-23T03:21:15;17.10;99.20
42819;DHT22;30249;51.426;0.102;2022-07-23T03:23:43;17.10;99.10
42819;DHT22;30249;51.426;0.102;2022-07-23T03:26:11;17.10;99.30
42819;DHT22;30249;51.426;0.102;2022-07-23T03:28:40;17.10;99.00
42819;DHT22;30249;51.426;0.102;2022-07-23T03:31:09;17.10;99.10
42819;DHT22;30249;51.426;0.102;2022-07-23T03:33:39;17.00;99.50
42819;DHT22;30249;51.426;0.102;2022-07-23T03:36:07;17.00;99.30
42819;DHT22;30249;51.426;0.102;2022-07-23T03:38:40;16.90;99.60
42819;DHT22;30249;51.426;0.102;2022-07-23T03:41:08;16.80;99.70
42819;DHT22;30249;51.426;0.102;2022-07-23T03:43:36;16.80;99.60
42819;DHT22;30249;51.426;0.102;2022-07-23T03:46:05;16.80;99.50
42819;DHT22;30249;51.426;0.102;2022-07-23T03:48:33;16.80;99.70
42819;DHT22;30249;51.426;0.102;2022-07-23T03:51:01;16.50;99.60
42819;DHT22;30249;51.426;0.102;2022-07-23T03:53:29;16.90;99.60
42819;DHT22;30249;51.426;0.102;2022-07-23T03:55:57;16.90;99.50
42819;DHT22;30249;51.426;0.102;2022-07-23T03:58:26;16.90;99.30
42819;DHT22;30249;51.426;0.102;2022-07-23T04:00:55;16.90;99.60
42819;DHT22;30249;51.426;0.102;2022-07-23T04:03:22;17.80;99.60
42819;DHT22;30249;51.426;0.102;2022-07-23T04:05:52;16.70;99.50
42819;DHT22;30249;51.426;0.102;2022-07-23T04:08:22;16.90;99.40
42819;DHT22;30249;51.426;0.102;2022-07-23T04:10:54;17.00;99.40
42819;DHT22;30249;51.426;0.102;2022-07-23T04:13:23;17.00;99.40
42819;DHT22;30249;51.426;0.102;2022-07-23T04:15:51;17.10;99.50
42819;DHT22;30249;51.426;0.102;2022-07-23T04:18:20;15.80;99.40
42819;DHT22;30249;51.426;0.102;2022-07-23T04:21:05;16.90;99.70
42819;DHT22;30249;51.426;0.102;2022-07-23T04:23:35;16.90;99.80
42819;DHT22;30249;51.426;0.102;2022-07-23T04:26:03;16.90;99.60
42819;DHT22;30249;51.426;0.102;2022-07-23T04:28:32;17.10;99.90
42819;DHT22;30249;51.426;0.102;2022-07-23T04:31:02;18.60;99.90
42819;DHT22;30249;51.426;0.102;2022-07-23T04:33:31;16.90;99.60
42819;DHT22;30249;51.426;0.102;2022-07-23T04:36:04;16.90;99.70
42819;DHT22;30249;51.426;0.102;2022-07-23T04:38:32;17.00;99.70
42819;DHT22;30249;51.426;0.102;2022-07-23T04:41:05;17.00;99.90
42819;DHT22;30249;51.426;0.102;2022-07-23T04:43:33;15.00;99.10
42819;DHT22;30249;51.426;0.102;2022-07-23T04:46:01;17.10;99.70
42819;DHT22;30249;51.426;0.102;2022-07-23T04:48:38;17.20;99.70
42819;DHT22;30249;51.426;0.102;2022-07-23T04:51:10;17.20;99.90
42819;DHT22;30249;51.426;0.102;2022-07-23T04:53:38;17.20;99.60
42819;DHT22;30249;51.426;0.102;2022-07-23T04:56:06;17.20;99.70
42819;DHT22;30249;51.426;0.102;2022-07-23T04:58:39;17.30;99.60
42819;DHT22;30249;51.426;0.102;2022-07-23T05:01:11;17.30;99.70
42819;DHT22;30249;51.426;0.102;2022-07-23T05:03:40;17.30;99.50
42819;DHT22;30249;51.426;0.102;2022-07-23T05:06:09;17.70;99.70
42819;DHT22;30249;51.426;0.102;2022-07-23T05:08:37;17.30;99.90
42819;DHT22;30249;51.426;0.102;2022-07-23T05:11:05;17.20;99.90
42819;DHT22;30249;51.426;0.102;2022-07-23T05:13:34;17.30;99.80
42819;DHT22;30249;51.426;0.102;2022-07-23T05:16:02;17.30;99.80
42819;DHT22;30249;51.426;0.102;2022-07-23T05:18:30;17.30;99.70
42819;DHT22;30249;51.426;0.102;2022-07-23T05:20:58;17.30;99.90
42819;DHT22;30249;51.426;0.102;2022-07-23T05:23:27;17.30;99.90
42819;DHT22;30249;51.426;0.102;2022-07-23T05:25:59;17.30;99.90
42819;DHT22;30249;51.426;0.102;2022-07-23T05:28:27;17.30;99.90
42819;DHT22;30249;51.426;0.102;2022-07-23T05:30:55;16.20;99.90
42819;DHT22;30249;51.426;0.102;2022-07-23T05:33:23;17.40;99.90
42819;DHT22;30249;51.426;0.102;2022-07-23T05:35:52;17.50;99.90
42819;DHT22;30249;51.426;0.102;2022-07-23T05:38:29;17.70;99.90
42819;DHT22;30249;51.426;0.102;2022-07-23T05:41:01;17.60;99.90
42819;DHT22;30249;51.426;0.102;2022-07-23T05:43:32;17.60;99.80
42819;DHT22;30249;51.426;0.102;2022-07-23T05:46:06;17.70;99.90
42819;DHT22;30249;51.426;0.102;2022-07-23T05:48:38;17.70;99.90
42819;DHT22;30249;51.426;0.102;2022-07-23T05:51:13;17.80;99.90
42819;DHT22;30249;51.426;0.102;2022-07-23T05:53:42;17.80;99.90
42819;DHT22;30249;51.426;0.102;2022-07-23T05:56:18;17.90;99.90
42819;DHT22;30249;51.426;0.102;2022-07-23T05:58:47;17.90;99.80
42819;DHT22;30249;51.426;0.102;2022-07-23T06:01:17;18.20;99.90
42819;DHT22;30249;51.426;0.102;2022-07-23T06:03:57;18.00;99.80
42819;DHT22;30249;51.426;0.102;2022-07-23T06:06:33;18.00;99.60
42819;DHT22;30249;51.426;0.102;2022-07-23T06:09:02;18.10;99.40
42819;DHT22;30249;51.426;0.102;2022-07-23T06:11:31;18.10;99.40
42819;DHT22;30249;51.426;0.102;2022-07-23T06:14:00;18.10;99.40
42819;DHT22;30249;51.426;0.102;2022-07-23T06:16:42;18.10;99.30
42819;DHT22;30249;51.426;0.102;2022-07-23T06:19:12;18.20;99.40
42819;DHT22;30249;51.426;0.102;2022-07-23T06:21:43;18.20;99.10
42819;DHT22;30249;51.426;0.102;2022-07-23T06:24:15;17.20;98.80
42819;DHT22;30249;51.426;0.102;2022-07-23T06:26:45;18.40;99.20
42819;DHT22;30249;51.426;0.102;2022-07-23T06:29:14;18.90;99.00
42819;DHT22;30249;51.426;0.102;2022-07-23T06:31:43;19.50;99.60
42819;DHT22;30249;51.426;0.102;2022-07-23T06:34:15;18.70;98.50
42819;DHT22;30249;51.426;0.102;2022-07-23T06:36:42;18.50;98.40
42819;DHT22;30249;51.426;0.102;2022-07-23T06:39:12;18.70;98.50
42819;DHT22;30249;51.426;0.102;2022-07-23T06:41:43;18.80;98.80
42819;DHT22;30249;51.426;0.102;2022-07-23T06:44:20;18.80;98.60
42819;DHT22;30249;51.426;0.102;2022-07-23T06:46:52;18.90;97.70
42819;DHT22;30249;51.426;0.102;2022-07-23T06:49:22;18.90;97.80
42819;DHT22;30249;51.426;0.102;2022-07-23T06:51:55;19.00;97.90
42819;DHT22;30249;51.426;0.102;2022-07-23T06:54:26;18.90;97.50
42819;DHT22;30249;51.426;0.102;2022-07-23T06:56:54;19.40;97.40
42819;DHT22;30249;51.426;0.102;2022-07-23T06:59:27;19.10;97.10
42819;DHT22;30249;51.426;0.102;2022-07-23T07:01:55;19.20;97.20
42819;DHT22;30249;51.426;0.102;2022-07-23T07:04:24;19.20;97.40
42819;DHT22;30249;51.426;0.102;2022-07-23T07:06:52;19.20;97.30
42819;DHT22;30249;51.426;0.102;2022-07-23T07:09:20;18.30;97.20
42819;DHT22;30249;51.426;0.102;2022-07-23T07:11:48;21.10;97.60
42819;DHT22;30249;51.426;0.102;2022-07-23T07:14:16;19.40;97.20
42819;DHT22;30249;51.426;0.102;2022-07-23T07:16:44;17.70;96.80
42819;DHT22;30249;51.426;0.102;2022-07-23T07:19:12;20.10;96.50
42819;DHT22;30249;51.426;0.102;2022-07-23T07:21:42;19.80;97.00
42819;DHT22;30249;51.426;0.102;2022-07-23T07:24:10;19.70;96.90
42819;DHT22;30249;51.426;0.102;2022-07-23T07:26:38;19.60;96.50
42819;DHT22;30249;51.426;0.102;2022-07-23T07:29:06;19.60;96.70
42819;DHT22;30249;51.426;0.102;2022-07-23T07:31:35;19.70;96.50
42819;DHT22;30249;51.426;0.102;2022-07-23T07:34:04;20.00;96.00
42819;DHT22;30249;51.426;0.102;2022-07-23T07:36:33;19.50;95.80
42819;DHT22;30249;51.426;0.102;2022-07-23T07:39:06;20.10;96.40
42819;DHT22;30249;51.426;0.102;2022-07-23T07:41:37;20.00;96.40
42819;DHT22;30249;51.426;0.102;2022-07-23T07:44:05;20.20;95.90
42819;DHT22;30249;51.426;0.102;2022-07-23T07:46:33;19.60;95.40
42819;DHT22;30249;51.426;0.102;2022-07-23T07:49:01;20.20;95.80
42819;DHT22;30249;51.426;0.102;2022-07-23T07:51:32;20.20;94.60
42819;DHT22;30249;51.426;0.102;2022-07-23T07:54:01;20.30;94.80
42819;DHT22;30249;51.426;0.102;2022-07-23T07:56:34;20.50;94.60
42819;DHT22;30249;51.426;0.102;2022-07-23T07:59:02;20.40;93.90
42819;DHT22;30249;51.426;0.102;2022-07-23T08:01:31;20.50;93.70
42819;DHT22;30249;51.426;0.102;2022-07-23T08:04:00;20.60;93.60
42819;DHT22;30249;51.426;0.102;2022-07-23T08:06:29;20.60;93.30
42819;DHT22;30249;51.426;0.102;2022-07-23T08:08:57;20.70;93.50
42819;DHT22;30249;51.426;0.102;2022-07-23T08:11:26;20.80;93.20
42819;DHT22;30249;51.426;0.102;2022-07-23T08:13:56;21.10;93.10
42819;DHT22;30249;51.426;0.102;2022-07-23T08:16:26;21.00;93.10
42819;DHT22;30249;51.426;0.102;2022-07-23T08:19:21;21.20;93.00
42819;DHT22;30249;51.426;0.102;2022-07-23T08:21:49;21.30;92.90
42819;DHT22;30249;51.426;0.102;2022-07-23T08:24:17;21.20;93.50
42819;DHT22;30249;51.426;0.102;2022-07-23T08:26:47;21.20;93.00
42819;DHT22;30249;51.426;0.102;2022-07-23T08:29:15;21.30;93.30
42819;DHT22;30249;51.426;0.102;2022-07-23T08:31:53;21.60;92.30
42819;DHT22;30249;51.426;0.102;2022-07-23T08:34:21;21.30;91.80
42819;DHT22;30249;51.426;0.102;2022-07-23T08:36:50;21.50;92.50
42819;DHT22;30249;51.426;0.102;2022-07-23T08:39:19;21.30;91.60
42819;DHT22;30249;51.426;0.102;2022-07-23T08:41:49;21.40;91.70
42819;DHT22;30249;51.426;0.102;2022-07-23T08:44:19;21.50;91.40
42819;DHT22;30249;51.426;0.102;2022-07-23T08:46:47;21.50;91.30
42819;DHT22;30249;51.426;0.102;2022-07-23T08:49:17;21.60;91.60
42819;DHT22;30249;51.426;0.102;2022-07-23T08:51:44;21.60;91.50
42819;DHT22;30249;51.426;0.102;2022-07-23T08:54:12;21.80;91.30
42819;DHT22;30249;51.426;0.102;2022-07-23T08:56:40;21.70;90.30
42819;DHT22;30249;51.426;0.102;2022-07-23T08:59:09;22.00;90.70
42819;DHT22;30249;51.426;0.102;2022-07-23T09:01:46;21.90;89.10
42819;DHT22;30249;51.426;0.102;2022-07-23T09:04:14;21.90;90.10
42819;DHT22;30249;51.426;0.102;2022-07-23T09:06:42;21.90;89.60
42819;DHT22;30249;51.426;0.102;2022-07-23T09:09:17;22.10;90.00
42819;DHT22;30249;51.426;0.102;2022-07-23T09:11:47;22.20;88.90
42819;DHT22;30249;51.426;0.102;2022-07-23T09:14:15;22.20;87.40
42819;DHT22;30249;51.426;0.102;2022-07-23T09:16:46;22.20;88.80
42819;DHT22;30249;51.426;0.102;2022-07-23T09:19:18;22.10;87.10
42819;DHT22;30249;51.426;0.102;2022-07-23T09:22:15;20.20;85.10
42819;DHT22;30249;51.426;0.102;2022-07-23T09:30:26;22.50;85.70
42819;DHT22;30249;51.426;0.102;2022-07-23T09:33:11;22.60;83.20
42819;DHT22;30249;51.426;0.102;2022-07-23T09:35:48;22.60;83.40
42819;DHT22;30249;51.426;0.102;2022-07-23T09:38:18;21.90;84.40
42819;DHT22;30249;51.426;0.102;2022-07-23T09:40:47;22.60;83.60
42819;DHT22;30249;51.426;0.102;2022-07-23T09:43:37;22.30;82.90
42819;DHT22;30249;51.426;0.102;2022-07-23T09:46:24;22.80;80.30
42819;DHT22;30249;51.426;0.102;2022-07-23T09:48:53;22.80;80.40
42819;DHT22;30249;51.426;0.102;2022-07-23T09:51:24;22.80;81.60
42819;DHT22;30249;51.426;0.102;2022-07-23T09:54:04;22.90;82.10
42819;DHT22;30249;51.426;0.102;2022-07-23T09:56:33;25.00;82.90
42819;DHT22;30249;51.426;0.102;2022-07-23T09:59:05;21.30;79.50
42819;DHT22;30249;51.426;0.102;2022-07-23T10:01:45;22.10;79.30
42819;DHT22;30249;51.426;0.102;2022-07-23T10:04:15;23.10;77.90
42819;DHT22;30249;51.426;0.102;2022-07-23T10:07:08;23.10;76.90
42819;DHT22;30249;51.426;0.102;2022-07-23T10:10:02;23.10;77.50
42819;DHT22;30249;51.426;0.102;2022-07-23T10:12:51;23.20;76.90
42819;DHT22;30249;51.426;0.102;2022-07-23T10:15:51;23.30;78.10
42819;DHT22;30249;51.426;0.102;2022-07-23T10:18:20;23.50;77.10
42819;DHT22;30249;51.426;0.102;2022-07-23T10:20:48;23.80;76.80
42819;DHT22;30249;51.426;0.102;2022-07-23T10:23:20;23.60;76.60
42819;DHT22;30249;51.426;0.102;2022-07-23T10:26:03;23.70;77.40
42819;DHT22;30249;51.426;0.102;2022-07-23T10:28:49;23.80;76.30
42819;DHT22;30249;51.426;0.102;2022-07-23T10:34:31;24.10;75.90
42819;DHT22;30249;51.426;0.102;2022-07-23T10:37:07;24.10;76.30
42819;DHT22;30249;51.426;0.102;2022-07-23T10:42:50;26.20;77.10
42819;DHT22;30249;51.426;0.102;2022-07-23T10:45:30;22.30;75.10
42819;DHT22;30249;51.426;0.102;2022-07-23T10:48:16;24.60;76.00
42819;DHT22;30249;51.426;0.102;2022-07-23T10:51:14;24.40;75.60
42819;DHT22;30249;51.426;0.102;2022-07-23T10:56:51;24.90;73.00
42819;DHT22;30249;51.426;0.102;2022-07-23T11:02:33;24.80;72.10
42819;DHT22;30249;51.426;0.102;2022-07-23T11:05:05;25.00;70.60
42819;DHT22;30249;51.426;0.102;2022-07-23T11:07:34;25.20;70.20
42819;DHT22;30249;51.426;0.102;2022-07-23T11:10:03;25.20;70.70
42819;DHT22;30249;51.426;0.102;2022-07-23T11:12:35;25.40;70.00
42819;DHT22;30249;51.426;0.102;2022-07-23T11:15:09;25.40;68.60
42819;DHT22;30249;51.426;0.102;2022-07-23T11:17:39;25.50;69.30
42819;DHT22;30249;51.426;0.102;2022-07-23T11:20:16;25.50;68.00
42819;DHT22;30249;51.426;0.102;2022-07-23T11:25:14;25.70;70.10
42819;DHT22;30249;51.426;0.102;2022-07-23T11:28:09;26.20;69.20
42819;DHT22;30249;51.426;0.102;2022-07-23T11:30:39;25.80;67.50
42819;DHT22;30249;51.426;0.102;2022-07-23T11:33:29;25.70;68.20
42819;DHT22;30249;51.426;0.102;2022-07-23T11:36:02;25.80;66.70
42819;DHT22;30249;51.426;0.102;2022-07-23T11:38:41;26.00;67.40
42819;DHT22;30249;51.426;0.102;2022-07-23T11:41:30;26.50;67.40
42819;DHT22;30249;51.426;0.102;2022-07-23T11:44:28;25.80;67.70
42819;DHT22;30249;51.426;0.102;2022-07-23T11:46:57;25.80;67.30
42819;DHT22;30249;51.426;0.102;2022-07-23T11:49:28;25.80;67.60
42819;DHT22;30249;51.426;0.102;2022-07-23T11:52:11;26.00;66.80
42819;DHT22;30249;51.426;0.102;2022-07-23T11:57:39;26.30;66.30
42819;DHT22;30249;51.426;0.102;2022-07-23T12:00:16;25.30;65.40
42819;DHT22;30249;51.426;0.102;2022-07-23T12:02:51;26.30;65.60
42819;DHT22;30249;51.426;0.102;2022-07-23T12:05:20;26.50;65.40
42819;DHT22;30249;51.426;0.102;2022-07-23T12:07:49;26.50;65.10
42819;DHT22;30249;51.426;0.102;2022-07-23T12:10:25;26.60;65.20
42819;DHT22;30249;51.426;0.102;2022-07-23T12:12:58;26.60;64.20
42819;DHT22;30249;51.426;0.102;2022-07-23T12:15:31;27.00;65.40
42819;DHT22;30249;51.426;0.102;2022-07-23T12:18:14;26.90;64.90
42819;DHT22;30249;51.426;0.102;2022-07-23T12:20:44;26.80;65.00
42819;DHT22;30249;51.426;0.102;2022-07-23T12:23:17;27.00;64.60
42819;DHT22;30249;51.426;0.102;2022-07-23T12:25:49;27.50;63.80
42819;DHT22;30249;51.426;0.102;2022-07-23T12:28:30;27.10;63.70
42819;DHT22;30249;51.426;0.102;2022-07-23T12:30:58;27.10;63.00
42819;DHT22;30249;51.426;0.102;2022-07-23T12:35:56;27.40;63.30
42819;DHT22;30249;51.426;0.102;2022-07-23T12:38:25;27.50;63.10
42819;DHT22;30249;51.426;0.102;2022-07-23T12:40:57;27.60;62.00
42819;DHT22;30249;51.426;0.102;2022-07-23T12:43:26;27.70;62.20
42819;DHT22;30249;51.426;0.102;2022-07-23T12:46:02;27.80;62.70
42819;DHT22;30249;51.426;0.102;2022-07-23T12:48:33;28.80;63.60
42819;DHT22;30249;51.426;0.102;2022-07-23T12:51:25;28.10;60.90
42819;DHT22;30249;51.426;0.102;2022-07-23T12:54:19;28.10;61.60
42819;DHT22;30249;51.426;0.102;2022-07-23T12:56:53;28.10;61.60
42819;DHT22;30249;51.426;0.102;2022-07-23T12:59:24;28.10;61.80
42819;DHT22;30249;51.426;0.102;2022-07-23T13:01:58;28.20;61.90
42819;DHT22;30249;51.426;0.102;2022-07-23T13:04:38;28.50;61.00
42819;DHT22;30249;51.426;0.102;2022-07-23T13:07:08;28.00;62.30
42819;DHT22;30249;51.426;0.102;2022-07-23T13:09:36;28.10;63.10
42819;DHT22;30249;51.426;0.102;2022-07-23T13:12:10;28.30;61.60
42819;DHT22;30249;51.426;0.102;2022-07-23T13:14:39;28.50;61.40
42819;DHT22;30249;51.426;0.102;2022-07-23T13:17:08;28.60;62.00
42819;DHT22;30249;51.426;0.102;2022-07-23T13:19:36;28.90;61.20
42819;DHT22;30249;51.426;0.102;2022-07-23T13:22:05;28.90;61.00
42819;DHT22;30249;51.426;0.102;2022-07-23T13:24:36;29.20;61.20
42819;DHT22;30249;51.426;0.102;2022-07-23T13:27:06;29.20;60.20
42819;DHT22;30249;51.426;0.102;2022-07-23T13:29:42;27.50;59.00
42819;DHT22;30249;51.426;0.102;2022-07-23T13:32:12;29.90;60.40
42819;DHT22;30249;51.426;0.102;2022-07-23T13:34:40;29.70;58.80
42819;DHT22;30249;51.426;0.102;2022-07-23T13:37:10;29.80;58.60
42819;DHT22;30249;51.426;0.102;2022-07-23T13:39:41;30.20;58.80
42819;DHT22;30249;51.426;0.102;2022-07-23T13:42:10;30.30;58.20
42819;DHT22;30249;51.426;0.102;2022-07-23T13:44:38;30.40;59.10
42819;DHT22;30249;51.426;0.102;2022-07-23T13:47:06;30.60;60.00
42819;DHT22;30249;51.426;0.102;2022-07-23T13:49:35;29.80;58.00
42819;DHT22;30249;51.426;0.102;2022-07-23T13:52:05;30.70;57.70
42819;DHT22;30249;51.426;0.102;2022-07-23T13:54:34;30.90;58.00
42819;DHT22;30249;51.426;0.102;2022-07-23T13:57:03;31.40;57.50
42819;DHT22;30249;51.426;0.102;2022-07-23T13:59:33;31.50;56.90
42819;DHT22;30249;51.426;0.102;2022-07-23T14:02:05;31.70;57.50
42819;DHT22;30249;51.426;0.102;2022-07-23T14:05:24;32.00;57.30
42819;DHT22;30249;51.426;0.102;2022-07-23T14:07:56;32.00;56.30
42819;DHT22;30249;51.426;0.102;2022-07-23T14:10:25;32.10;57.00
42819;DHT22;30249;51.426;0.102;2022-07-23T14:13:15;32.00;56.20
42819;DHT22;30249;51.426;0.102;2022-07-23T14:15:43;31.40;55.60
42819;DHT22;30249;51.426;0.102;2022-07-23T14:18:16;32.00;57.30
42819;DHT22;30249;51.426;0.102;2022-07-23T14:20:45;32.00;56.50
42819;DHT22;30249;51.426;0.102;2022-07-23T14:23:13;32.20;57.70
42819;DHT22;30249;51.426;0.102;2022-07-23T14:25:42;32.30;56.60
42819;DHT22;30249;51.426;0.102;2022-07-23T14:28:14;32.70;57.80
42819;DHT22;30249;51.426;0.102;2022-07-23T14:30:49;32.30;56.00
42819;DHT22;30249;51.426;0.102;2022-07-23T14:33:19;32.20;56.70
42819;DHT22;30249;51.426;0.102;2022-07-23T14:35:56;32.40;56.60
42819;DHT22;30249;51.426;0.102;2022-07-23T14:38:36;32.20;56.70
42819;DHT22;30249;51.426;0.102;2022-07-23T14:41:12;32.10;57.30
42819;DHT22;30249;51.426;0.102;2022-07-23T14:43:56;32.30;57.50
42819;DHT22;30249;51.426;0.102;2022-07-23T14:46:39;32.40;57.90
42819;DHT22;30249;51.426;0.102;2022-07-23T14:49:16;31.90;57.50
42819;DHT22;30249;51.426;0.102;2022-07-23T14:51:58;31.40;58.60
42819;DHT22;30249;51.426;0.102;2022-07-23T14:54:32;31.00;59.10
42819;DHT22;30249;51.426;0.102;2022-07-23T14:57:14;30.60;59.90
42819;DHT22;30249;51.426;0.102;2022-07-23T14:59:57;30.20;60.30
42819;DHT22;30249;51.426;0.102;2022-07-23T15:02:41;29.90;63.40
42819;DHT22;30249;51.426;0.102;2022-07-23T15:05:23;29.70;61.90
42819;DHT22;30249;51.426;0.102;2022-07-23T15:07:53;31.20;64.70
42819;DHT22;30249;51.426;0.102;2022-07-23T15:10:42;30.30;62.20
42819;DHT22;30249;51.426;0.102;2022-07-23T15:13:21;29.90;61.70
42819;DHT22;30249;51.426;0.102;2022-07-23T15:15:56;29.80;63.40
42819;DHT22;30249;51.426;0.102;2022-07-23T15:18:31;29.90;62.90
42819;DHT22;30249;51.426;0.102;2022-07-23T15:21:05;29.80;61.90
42819;DHT22;30249;51.426;0.102;2022-07-23T15:23:39;28.90;61.40
42819;DHT22;30249;51.426;0.102;2022-07-23T15:26:12;29.70;62.20
42819;DHT22;30249;51.426;0.102;2022-07-23T15:28:46;27.60;61.70
42819;DHT22;30249;51.426;0.102;2022-07-23T15:31:18;29.60;63.20
42819;DHT22;30249;51.426;0.102;2022-07-23T15:33:53;29.50;63.30
42819;DHT22;30249;51.426;0.102;2022-07-23T15:36:28;29.60;63.20
42819;DHT22;30249;51.426;0.102;2022-07-23T15:42:01;30.00;63.30
42819;DHT22;30249;51.426;0.102;2022-07-23T15:44:49;30.30;63.60
42819;DHT22;30249;51.426;0.102;2022-07-23T15:47:25;30.80;63.20
42819;DHT22;30249;51.426;0.102;2022-07-23T15:50:01;31.40;62.50
42819;DHT22;30249;51.426;0.102;2022-07-23T15:52:39;31.40;62.80
42819;DHT22;30249;51.426;0.102;2022-07-23T15:55:31;31.30;61.80
42819;DHT22;30249;51.426;0.102;2022-07-23T15:58:04;31.10;62.60
42819;DHT22;30249;51.426;0.102;2022-07-23T16:00:41;30.90;63.10
42819;DHT22;30249;51.426;0.102;2022-07-23T16:03:40;30.70;62.80
42819;DHT22;30249;51.426;0.102;2022-07-23T16:06:15;31.00;63.30
42819;DHT22;30249;51.426;0.102;2022-07-23T16:09:03;31.10;63.10
42819;DHT22;30249;51.426;0.102;2022-07-23T16:11:49;30.70;64.10
42819;DHT22;30249;51.426;0.102;2022-07-23T16:14:19;30.60;63.50
42819;DHT22;30249;51.426;0.102;2022-07-23T16:17:05;31.20;64.10
42819;DHT22;30249;51.426;0.102;2022-07-23T16:19:39;31.00;64.40
42819;DHT22;30249;51.426;0.102;2022-07-23T16:22:10;31.10;63.30
42819;DHT22;30249;51.426;0.102;2022-07-23T16:24:51;30.70;63.80
42819;DHT22;30249;51.426;0.102;2022-07-23T16:27:26;30.40;64.10
42819;DHT22;30249;51.426;0.102;2022-07-23T16:30:20;30.60;64.20
42819;DHT22;30249;51.426;0.102;2022-07-23T16:32:46;31.10;64.20